sensor_id;sensor_type;location;lat;lon;timestamp;P1;durP1;ratioP1;P2;durP2;ratioP2
75230;SDS011;63814;50.118;8.714;2022-10-17T00:01:39;6.63;;;5.27;;
75230;SDS011;63814;50.118;8.714;2022-10-17T00:04:05;7.90;;;4.90;;
75230;SDS011;63814;50.118;8.714;2022-10-17T00:06:32;8.43;;;5.20;;
75230;SDS011;63814;50.118;8.714;2022-10-17T00:08:58;8.20;;;5.10;;
75230;SDS011;63814;50.118;8.714;2022-10-17T00:11:25;7.93;;;4.93;;
75230;SDS011;63814;50.118;8.714;2022-10-17T00:13:53;9.83;;;5.27;;
75230;SDS011;63814;50.118;8.714;2022-10-17T00:16:24;10.47;;;4.93;;
75230;SDS011;63814;50.118;8.714;2022-10-17T00:18:53;5.13;;;4.50;;
75230;SDS011;63814;50.118;8.714;2022-10-17T00:21:20;10.37;;;5.63;;
75230;SDS011;63814;50.118;8.714;2022-10-17T00:23:47;6.30;;;5.00;;
75230;SDS011;63814;50.118;8.714;2022-10-17T00:26:14;6.33;;;5.23;;
75230;SDS011;63814;50.118;8.714;2022-10-17T00:28:41;6.00;;;4.57;;
75230;SDS011;63814;50.118;8.714;2022-10-17T00:31:10;7.90;;;5.03;;
75230;SDS011;63814;50.118;8.714;2022-10-17T00:33:37;6.57;;;5.00;;
75230;SDS011;63814;50.118;8.714;2022-10-17T00:36:06;8.63;;;4.97;;
75230;SDS011;63814;50.118;8.714;2022-10-17T00:38:33;5.90;;;4.90;;
75230;SDS011;63814;50.118;8.714;2022-10-17T00:41:00;7.87;;;4.63;;
75230;SDS011;63814;50.118;8.714;2022-10-17T00:43:27;11.27;;;5.80;;
75230;SDS011;63814;50.118;8.714;2022-10-17T00:45:54;7.57;;;5.07;;
75230;SDS011;63814;50.118;8.714;2022-10-17T00:48:21;9.57;;;5.37;;
75230;SDS011;63814;50.118;8.714;2022-10-17T00:50:49;6.50;;;5.43;;
75230;SDS011;63814;50.118;8.714;2022-10-17T00:53:17;8.73;;;5.33;;
75230;SDS011;63814;50.118;8.714;2022-10-17T00:55:45;7.70;;;5.13;;
75230;SDS011;63814;50.118;8.714;2022-10-17T00:58:15;8.27;;;5.23;;
75230;SDS011;63814;50.118;8.714;2022-10-17T01:00:42;5.30;;;4.80;;
75230;SDS011;63814;50.118;8.714;2022-10-17T01:03:11;8.37;;;5.43;;
75230;SDS011;63814;50.118;8.714;2022-10-17T01:05:37;8.13;;;4.70;;
75230;SDS011;63814;50.118;8.714;2022-10-17T01:08:06;5.63;;;5.00;;
75230;SDS011;63814;50.118;8.714;2022-10-17T01:10:37;7.20;;;5.27;;
75230;SDS011;63814;50.118;8.714;2022-10-17T01:13:12;5.73;;;5.10;;
75230;SDS011;63814;50.118;8.714;2022-10-17T01:15:47;6.47;;;5.07;;
75230;SDS011;63814;50.118;8.714;2022-10-17T01:18:27;4.90;;;4.30;;
75230;SDS011;63814;50.118;8.714;2022-10-17T01:21:20;6.80;;;5.47;;
75230;SDS011;63814;50.118;8.714;2022-10-17T01:27:02;11.10;;;5.80;;
75230;SDS011;63814;50.118;8.714;2022-10-17T01:32:43;8.13;;;5.10;;
75230;SDS011;63814;50.118;8.714;2022-10-17T01:35:13;6.20;;;5.57;;
75230;SDS011;63814;50.118;8.714;2022-10-17T01:37:48;7.27;;;4.97;;
75230;SDS011;63814;50.118;8.714;2022-10-17T01:40:21;8.47;;;5.50;;
75230;SDS011;63814;50.118;8.714;2022-10-17T01:42:54;5.90;;;5.30;;
75230;SDS011;63814;50.118;8.714;2022-10-17T01:45:26;7.17;;;5.10;;
75230;SDS011;63814;50.118;8.714;2022-10-17T01:48:00;6.23;;;4.50;;
75230;SDS011;63814;50.118;8.714;2022-10-17T01:50:31;10.93;;;5.70;;
75230;SDS011;63814;50.118;8.714;2022-10-17T01:53:01;7.23;;;6.10;;
75230;SDS011;63814;50.118;8.714;2022-10-17T01:55:34;7.30;;;6.10;;
75230;SDS011;63814;50.118;8.714;2022-10-17T01:58:04;7.33;;;5.73;;
75230;SDS011;63814;50.118;8.714;2022-10-17T02:00:34;5.67;;;5.07;;
75230;SDS011;63814;50.118;8.714;2022-10-17T02:03:04;6.73;;;5.77;;
75230;SDS011;63814;50.118;8.714;2022-10-17T02:05:35;9.40;;;5.90;;
75230;SDS011;63814;50.118;8.714;2022-10-17T02:08:04;7.17;;;5.63;;
75230;SDS011;63814;50.118;8.714;2022-10-17T02:10:34;8.03;;;5.57;;
75230;SDS011;63814;50.118;8.714;2022-10-17T02:13:05;9.73;;;6.53;;
75230;SDS011;63814;50.118;8.714;2022-10-17T02:15:45;17.50;;;6.30;;
75230;SDS011;63814;50.118;8.714;2022-10-17T02:18:31;10.43;;;6.37;;
75230;SDS011;63814;50.118;8.714;2022-10-17T02:21:19;9.20;;;5.50;;
75230;SDS011;63814;50.118;8.714;2022-10-17T02:23:52;8.27;;;6.17;;
75230;SDS011;63814;50.118;8.714;2022-10-17T02:26:26;8.03;;;5.90;;
75230;SDS011;63814;50.118;8.714;2022-10-17T02:29:01;12.57;;;6.13;;
75230;SDS011;63814;50.118;8.714;2022-10-17T02:31:32;10.50;;;5.77;;
75230;SDS011;63814;50.118;8.714;2022-10-17T02:34:05;7.13;;;5.80;;
75230;SDS011;63814;50.118;8.714;2022-10-17T02:36:45;7.93;;;5.73;;
75230;SDS011;63814;50.118;8.714;2022-10-17T02:39:14;6.60;;;5.90;;
75230;SDS011;63814;50.118;8.714;2022-10-17T02:41:42;7.70;;;5.60;;
75230;SDS011;63814;50.118;8.714;2022-10-17T02:44:10;6.60;;;5.80;;
75230;SDS011;63814;50.118;8.714;2022-10-17T02:46:37;11.43;;;5.70;;
75230;SDS011;63814;50.118;8.714;2022-10-17T02:49:07;7.37;;;5.47;;
75230;SDS011;63814;50.118;8.714;2022-10-17T02:51:42;7.90;;;5.50;;
75230;SDS011;63814;50.118;8.714;2022-10-17T02:54:14;6.23;;;5.63;;
75230;SDS011;63814;50.118;8.714;2022-10-17T02:56:45;8.63;;;5.90;;
75230;SDS011;63814;50.118;8.714;2022-10-17T02:59:16;7.77;;;5.50;;
75230;SDS011;63814;50.118;8.714;2022-10-17T03:01:46;6.43;;;5.60;;
75230;SDS011;63814;50.118;8.714;2022-10-17T03:04:14;9.17;;;5.27;;
75230;SDS011;63814;50.118;8.714;2022-10-17T03:06:41;5.70;;;5.07;;
75230;SDS011;63814;50.118;8.714;2022-10-17T03:09:07;7.83;;;5.53;;
75230;SDS011;63814;50.118;8.714;2022-10-17T03:11:34;8.53;;;5.43;;
75230;SDS011;63814;50.118;8.714;2022-10-17T03:14:00;7.63;;;5.10;;
75230;SDS011;63814;50.118;8.714;2022-10-17T03:16:27;11.73;;;5.57;;
75230;SDS011;63814;50.118;8.714;2022-10-17T03:18:54;6.00;;;5.40;;
75230;SDS011;63814;50.118;8.714;2022-10-17T03:21:21;6.80;;;5.10;;
75230;SDS011;63814;50.118;8.714;2022-10-17T03:23:48;5.43;;;4.90;;
75230;SDS011;63814;50.118;8.714;2022-10-17T03:26:14;8.27;;;5.43;;
75230;SDS011;63814;50.118;8.714;2022-10-17T03:28:41;6.73;;;5.30;;
75230;SDS011;63814;50.118;8.714;2022-10-17T03:31:08;6.03;;;5.17;;
75230;SDS011;63814;50.118;8.714;2022-10-17T03:33:35;8.87;;;5.00;;
75230;SDS011;63814;50.118;8.714;2022-10-17T03:36:05;7.57;;;5.27;;
75230;SDS011;63814;50.118;8.714;2022-10-17T03:38:34;7.33;;;4.90;;
75230;SDS011;63814;50.118;8.714;2022-10-17T03:41:01;7.03;;;5.17;;
75230;SDS011;63814;50.118;8.714;2022-10-17T03:43:28;8.50;;;5.33;;
75230;SDS011;63814;50.118;8.714;2022-10-17T03:45:55;7.83;;;5.60;;
75230;SDS011;63814;50.118;8.714;2022-10-17T03:48:22;8.67;;;5.40;;
75230;SDS011;63814;50.118;8.714;2022-10-17T03:50:49;8.40;;;5.83;;
75230;SDS011;63814;50.118;8.714;2022-10-17T03:53:16;8.97;;;5.70;;
75230;SDS011;63814;50.118;8.714;2022-10-17T03:55:44;8.70;;;6.27;;
75230;SDS011;63814;50.118;8.714;2022-10-17T03:58:10;9.90;;;6.23;;
75230;SDS011;63814;50.118;8.714;2022-10-17T04:00:37;12.37;;;5.87;;
75230;SDS011;63814;50.118;8.714;2022-10-17T04:03:03;6.97;;;5.77;;
75230;SDS011;63814;50.118;8.714;2022-10-17T04:05:30;7.77;;;5.90;;
75230;SDS011;63814;50.118;8.714;2022-10-17T04:07:56;6.60;;;5.77;;
75230;SDS011;63814;50.118;8.714;2022-10-17T04:10:23;9.40;;;6.70;;
75230;SDS011;63814;50.118;8.714;2022-10-17T04:12:50;7.57;;;5.97;;
75230;SDS011;63814;50.118;8.714;2022-10-17T04:15:17;10.33;;;5.77;;
75230;SDS011;63814;50.118;8.714;2022-10-17T04:17:43;8.70;;;5.77;;
75230;SDS011;63814;50.118;8.714;2022-10-17T04:20:10;8.67;;;5.50;;
75230;SDS011;63814;50.118;8.714;2022-10-17T04:22:37;8.87;;;6.03;;
75230;SDS011;63814;50.118;8.714;2022-10-17T04:25:03;9.53;;;5.63;;
75230;SDS011;63814;50.118;8.714;2022-10-17T04:27:30;7.43;;;5.17;;
75230;SDS011;63814;50.118;8.714;2022-10-17T04:29:58;6.73;;;5.77;;
75230;SDS011;63814;50.118;8.714;2022-10-17T04:32:24;12.47;;;5.70;;
75230;SDS011;63814;50.118;8.714;2022-10-17T04:34:51;11.33;;;5.90;;
75230;SDS011;63814;50.118;8.714;2022-10-17T04:37:17;7.23;;;5.77;;
75230;SDS011;63814;50.118;8.714;2022-10-17T04:39:44;7.40;;;5.60;;
75230;SDS011;63814;50.118;8.714;2022-10-17T04:42:10;7.77;;;5.70;;
75230;SDS011;63814;50.118;8.714;2022-10-17T04:44:37;9.13;;;5.80;;
75230;SDS011;63814;50.118;8.714;2022-10-17T04:47:04;9.17;;;6.40;;
75230;SDS011;63814;50.118;8.714;2022-10-17T04:49:33;8.27;;;6.40;;
75230;SDS011;63814;50.118;8.714;2022-10-17T04:51:59;10.17;;;6.60;;
75230;SDS011;63814;50.118;8.714;2022-10-17T04:54:25;8.53;;;6.07;;
75230;SDS011;63814;50.118;8.714;2022-10-17T04:56:52;10.90;;;6.37;;
75230;SDS011;63814;50.118;8.714;2022-10-17T04:59:18;10.77;;;6.13;;
75230;SDS011;63814;50.118;8.714;2022-10-17T05:01:45;6.73;;;6.00;;
75230;SDS011;63814;50.118;8.714;2022-10-17T05:04:15;8.90;;;5.93;;
75230;SDS011;63814;50.118;8.714;2022-10-17T05:06:41;11.73;;;6.67;;
75230;SDS011;63814;50.118;8.714;2022-10-17T05:09:08;8.47;;;6.40;;
75230;SDS011;63814;50.118;8.714;2022-10-17T05:11:34;9.07;;;6.53;;
75230;SDS011;63814;50.118;8.714;2022-10-17T05:14:00;7.63;;;6.30;;
75230;SDS011;63814;50.118;8.714;2022-10-17T05:16:27;9.07;;;6.57;;
75230;SDS011;63814;50.118;8.714;2022-10-17T05:18:56;7.83;;;6.20;;
75230;SDS011;63814;50.118;8.714;2022-10-17T05:21:25;7.47;;;5.70;;
75230;SDS011;63814;50.118;8.714;2022-10-17T05:23:52;11.10;;;6.40;;
75230;SDS011;63814;50.118;8.714;2022-10-17T05:26:19;9.37;;;7.00;;
75230;SDS011;63814;50.118;8.714;2022-10-17T05:28:47;8.10;;;5.87;;
75230;SDS011;63814;50.118;8.714;2022-10-17T05:31:14;10.90;;;5.70;;
75230;SDS011;63814;50.118;8.714;2022-10-17T05:33:40;13.10;;;6.20;;
75230;SDS011;63814;50.118;8.714;2022-10-17T05:36:07;8.53;;;6.03;;
75230;SDS011;63814;50.118;8.714;2022-10-17T05:38:35;9.73;;;6.20;;
75230;SDS011;63814;50.118;8.714;2022-10-17T05:41:02;8.00;;;6.13;;
75230;SDS011;63814;50.118;8.714;2022-10-17T05:43:30;11.10;;;6.63;;
75230;SDS011;63814;50.118;8.714;2022-10-17T05:45:57;9.20;;;5.87;;
75230;SDS011;63814;50.118;8.714;2022-10-17T05:48:24;9.50;;;6.10;;
75230;SDS011;63814;50.118;8.714;2022-10-17T05:50:56;11.53;;;6.27;;
75230;SDS011;63814;50.118;8.714;2022-10-17T05:53:23;9.40;;;5.60;;
75230;SDS011;63814;50.118;8.714;2022-10-17T05:55:55;10.40;;;5.70;;
75230;SDS011;63814;50.118;8.714;2022-10-17T05:58:22;8.63;;;5.27;;
75230;SDS011;63814;50.118;8.714;2022-10-17T06:00:49;11.47;;;5.97;;
75230;SDS011;63814;50.118;8.714;2022-10-17T06:03:15;8.37;;;5.70;;
75230;SDS011;63814;50.118;8.714;2022-10-17T06:05:42;9.50;;;5.77;;
75230;SDS011;63814;50.118;8.714;2022-10-17T06:08:08;10.30;;;6.10;;
75230;SDS011;63814;50.118;8.714;2022-10-17T06:10:34;10.23;;;5.70;;
75230;SDS011;63814;50.118;8.714;2022-10-17T06:13:02;7.53;;;5.07;;
75230;SDS011;63814;50.118;8.714;2022-10-17T06:15:29;11.37;;;6.10;;
75230;SDS011;63814;50.118;8.714;2022-10-17T06:17:55;9.97;;;6.07;;
75230;SDS011;63814;50.118;8.714;2022-10-17T06:20:22;8.50;;;6.60;;
75230;SDS011;63814;50.118;8.714;2022-10-17T06:22:48;18.37;;;11.87;;
75230;SDS011;63814;50.118;8.714;2022-10-17T06:25:14;14.57;;;9.50;;
75230;SDS011;63814;50.118;8.714;2022-10-17T06:27:41;15.37;;;10.00;;
75230;SDS011;63814;50.118;8.714;2022-10-17T06:30:09;11.97;;;7.67;;
75230;SDS011;63814;50.118;8.714;2022-10-17T06:32:36;14.53;;;7.63;;
75230;SDS011;63814;50.118;8.714;2022-10-17T06:35:02;14.43;;;10.53;;
75230;SDS011;63814;50.118;8.714;2022-10-17T06:37:29;11.10;;;8.50;;
75230;SDS011;63814;50.118;8.714;2022-10-17T06:39:57;10.13;;;7.97;;
75230;SDS011;63814;50.118;8.714;2022-10-17T06:42:23;10.50;;;8.97;;
75230;SDS011;63814;50.118;8.714;2022-10-17T06:44:50;19.20;;;14.23;;
75230;SDS011;63814;50.118;8.714;2022-10-17T06:47:17;11.97;;;8.87;;
75230;SDS011;63814;50.118;8.714;2022-10-17T06:49:44;19.77;;;9.17;;
75230;SDS011;63814;50.118;8.714;2022-10-17T06:52:10;12.00;;;7.80;;
75230;SDS011;63814;50.118;8.714;2022-10-17T06:54:37;14.03;;;7.30;;
75230;SDS011;63814;50.118;8.714;2022-10-17T06:57:03;22.10;;;12.60;;
75230;SDS011;63814;50.118;8.714;2022-10-17T06:59:30;16.90;;;11.63;;
75230;SDS011;63814;50.118;8.714;2022-10-17T07:01:56;15.53;;;9.50;;
75230;SDS011;63814;50.118;8.714;2022-10-17T07:04:24;15.50;;;8.97;;
75230;SDS011;63814;50.118;8.714;2022-10-17T07:06:51;19.00;;;8.57;;
75230;SDS011;63814;50.118;8.714;2022-10-17T07:09:17;20.00;;;10.43;;
75230;SDS011;63814;50.118;8.714;2022-10-17T07:11:44;29.10;;;17.37;;
75230;SDS011;63814;50.118;8.714;2022-10-17T07:14:11;30.33;;;13.77;;
75230;SDS011;63814;50.118;8.714;2022-10-17T07:16:37;28.57;;;12.73;;
75230;SDS011;63814;50.118;8.714;2022-10-17T07:19:04;25.83;;;12.87;;
75230;SDS011;63814;50.118;8.714;2022-10-17T07:21:31;26.83;;;12.40;;
75230;SDS011;63814;50.118;8.714;2022-10-17T07:23:58;27.30;;;9.97;;
75230;SDS011;63814;50.118;8.714;2022-10-17T07:26:24;28.37;;;11.43;;
75230;SDS011;63814;50.118;8.714;2022-10-17T07:28:51;27.60;;;12.97;;
75230;SDS011;63814;50.118;8.714;2022-10-17T07:31:19;18.67;;;8.80;;
75230;SDS011;63814;50.118;8.714;2022-10-17T07:33:47;25.97;;;9.20;;
75230;SDS011;63814;50.118;8.714;2022-10-17T07:36:14;23.33;;;10.40;;
75230;SDS011;63814;50.118;8.714;2022-10-17T07:38:41;18.33;;;8.57;;
75230;SDS011;63814;50.118;8.714;2022-10-17T07:41:10;28.10;;;8.40;;
75230;SDS011;63814;50.118;8.714;2022-10-17T07:43:37;20.10;;;9.93;;
75230;SDS011;63814;50.118;8.714;2022-10-17T07:46:04;26.83;;;8.00;;
75230;SDS011;63814;50.118;8.714;2022-10-17T07:48:30;14.33;;;7.43;;
75230;SDS011;63814;50.118;8.714;2022-10-17T07:51:00;24.20;;;9.50;;
75230;SDS011;63814;50.118;8.714;2022-10-17T07:53:27;19.47;;;11.20;;
75230;SDS011;63814;50.118;8.714;2022-10-17T07:55:55;17.53;;;8.97;;
75230;SDS011;63814;50.118;8.714;2022-10-17T07:58:21;25.90;;;8.47;;
75230;SDS011;63814;50.118;8.714;2022-10-17T08:00:48;20.80;;;11.57;;
75230;SDS011;63814;50.118;8.714;2022-10-17T08:03:15;23.17;;;8.90;;
75230;SDS011;63814;50.118;8.714;2022-10-17T08:05:41;16.67;;;7.93;;
75230;SDS011;63814;50.118;8.714;2022-10-17T08:08:08;21.17;;;7.83;;
75230;SDS011;63814;50.118;8.714;2022-10-17T08:10:34;15.80;;;7.00;;
75230;SDS011;63814;50.118;8.714;2022-10-17T08:13:03;12.57;;;6.77;;
75230;SDS011;63814;50.118;8.714;2022-10-17T08:15:29;22.87;;;6.97;;
75230;SDS011;63814;50.118;8.714;2022-10-17T08:17:56;7.67;;;5.60;;
75230;SDS011;63814;50.118;8.714;2022-10-17T08:20:23;10.00;;;5.60;;
75230;SDS011;63814;50.118;8.714;2022-10-17T08:22:50;9.80;;;6.83;;
75230;SDS011;63814;50.118;8.714;2022-10-17T08:25:17;10.03;;;6.00;;
75230;SDS011;63814;50.118;8.714;2022-10-17T08:27:44;10.77;;;6.50;;
75230;SDS011;63814;50.118;8.714;2022-10-17T08:30:12;15.50;;;6.40;;
75230;SDS011;63814;50.118;8.714;2022-10-17T08:32:38;9.07;;;5.70;;
75230;SDS011;63814;50.118;8.714;2022-10-17T08:35:05;8.30;;;5.95;;
75230;SDS011;63814;50.118;8.714;2022-10-17T08:37:32;9.30;;;5.93;;
75230;SDS011;63814;50.118;8.714;2022-10-17T08:39:59;9.68;;;5.82;;
75230;SDS011;63814;50.118;8.714;2022-10-17T08:42:29;10.17;;;6.47;;
75230;SDS011;63814;50.118;8.714;2022-10-17T08:45:14;9.73;;;6.00;;
75230;SDS011;63814;50.118;8.714;2022-10-17T08:47:45;8.97;;;5.43;;
75230;SDS011;63814;50.118;8.714;2022-10-17T08:50:15;8.83;;;6.17;;
75230;SDS011;63814;50.118;8.714;2022-10-17T08:52:50;10.23;;;5.30;;
75230;SDS011;63814;50.118;8.714;2022-10-17T08:55:21;9.13;;;5.70;;
75230;SDS011;63814;50.118;8.714;2022-10-17T08:57:54;10.02;;;5.38;;
75230;SDS011;63814;50.118;8.714;2022-10-17T09:00:22;7.43;;;5.27;;
75230;SDS011;63814;50.118;8.714;2022-10-17T09:02:52;6.10;;;4.90;;
75230;SDS011;63814;50.118;8.714;2022-10-17T09:05:29;9.60;;;4.95;;
75230;SDS011;63814;50.118;8.714;2022-10-17T09:08:06;7.23;;;4.50;;
75230;SDS011;63814;50.118;8.714;2022-10-17T09:10:41;8.50;;;4.93;;
75230;SDS011;63814;50.118;8.714;2022-10-17T09:13:20;9.68;;;4.95;;
75230;SDS011;63814;50.118;8.714;2022-10-17T09:15:56;5.88;;;4.68;;
75230;SDS011;63814;50.118;8.714;2022-10-17T09:18:31;7.75;;;5.10;;
75230;SDS011;63814;50.118;8.714;2022-10-17T09:21:01;12.68;;;5.13;;
75230;SDS011;63814;50.118;8.714;2022-10-17T09:23:39;11.95;;;5.30;;
75230;SDS011;63814;50.118;8.714;2022-10-17T09:26:09;7.88;;;5.10;;
75230;SDS011;63814;50.118;8.714;2022-10-17T09:28:38;7.32;;;5.00;;
75230;SDS011;63814;50.118;8.714;2022-10-17T09:31:11;10.48;;;5.00;;
75230;SDS011;63814;50.118;8.714;2022-10-17T09:33:43;9.48;;;4.45;;
75230;SDS011;63814;50.118;8.714;2022-10-17T09:36:12;9.02;;;5.13;;
75230;SDS011;63814;50.118;8.714;2022-10-17T09:38:42;8.50;;;4.20;;
75230;SDS011;63814;50.118;8.714;2022-10-17T09:41:13;8.07;;;4.70;;
75230;SDS011;63814;50.118;8.714;2022-10-17T09:43:43;8.45;;;5.43;;
75230;SDS011;63814;50.118;8.714;2022-10-17T09:46:14;9.20;;;4.18;;
75230;SDS011;63814;50.118;8.714;2022-10-17T09:48:52;6.38;;;4.22;;
75230;SDS011;63814;50.118;8.714;2022-10-17T09:51:20;8.25;;;3.80;;
75230;SDS011;63814;50.118;8.714;2022-10-17T09:53:48;10.40;;;3.95;;
75230;SDS011;63814;50.118;8.714;2022-10-17T09:56:18;6.88;;;3.47;;
75230;SDS011;63814;50.118;8.714;2022-10-17T09:58:46;9.55;;;4.15;;
75230;SDS011;63814;50.118;8.714;2022-10-17T10:01:16;8.98;;;3.55;;
75230;SDS011;63814;50.118;8.714;2022-10-17T10:03:44;5.70;;;3.70;;
75230;SDS011;63814;50.118;8.714;2022-10-17T10:06:12;5.35;;;3.35;;
75230;SDS011;63814;50.118;8.714;2022-10-17T10:08:47;9.48;;;3.88;;
75230;SDS011;63814;50.118;8.714;2022-10-17T10:11:16;6.35;;;3.40;;
75230;SDS011;63814;50.118;8.714;2022-10-17T10:13:44;12.65;;;3.53;;
75230;SDS011;63814;50.118;8.714;2022-10-17T10:16:19;11.63;;;3.78;;
75230;SDS011;63814;50.118;8.714;2022-10-17T10:18:48;8.50;;;3.30;;
75230;SDS011;63814;50.118;8.714;2022-10-17T10:21:16;3.95;;;2.67;;
75230;SDS011;63814;50.118;8.714;2022-10-17T10:23:45;5.68;;;3.25;;
75230;SDS011;63814;50.118;8.714;2022-10-17T10:26:29;6.53;;;3.22;;
75230;SDS011;63814;50.118;8.714;2022-10-17T10:29:01;6.15;;;3.30;;
75230;SDS011;63814;50.118;8.714;2022-10-17T10:31:32;5.50;;;3.40;;
75230;SDS011;63814;50.118;8.714;2022-10-17T10:34:02;9.23;;;4.00;;
75230;SDS011;63814;50.118;8.714;2022-10-17T10:36:41;7.00;;;2.92;;
75230;SDS011;63814;50.118;8.714;2022-10-17T10:39:13;4.57;;;2.90;;
75230;SDS011;63814;50.118;8.714;2022-10-17T10:41:49;7.63;;;3.03;;
75230;SDS011;63814;50.118;8.714;2022-10-17T10:44:16;7.45;;;3.17;;
75230;SDS011;63814;50.118;8.714;2022-10-17T10:46:48;6.03;;;2.83;;
75230;SDS011;63814;50.118;8.714;2022-10-17T10:49:31;9.90;;;3.20;;
75230;SDS011;63814;50.118;8.714;2022-10-17T10:51:58;6.32;;;2.95;;
75230;SDS011;63814;50.118;8.714;2022-10-17T10:54:28;7.75;;;2.95;;
75230;SDS011;63814;50.118;8.714;2022-10-17T10:57:01;6.13;;;2.90;;
75230;SDS011;63814;50.118;8.714;2022-10-17T10:59:34;4.75;;;2.92;;
75230;SDS011;63814;50.118;8.714;2022-10-17T11:02:11;7.93;;;3.05;;
75230;SDS011;63814;50.118;8.714;2022-10-17T11:04:43;4.45;;;2.83;;
75230;SDS011;63814;50.118;8.714;2022-10-17T11:07:18;5.18;;;2.90;;
75230;SDS011;63814;50.118;8.714;2022-10-17T11:09:50;9.48;;;3.13;;
75230;SDS011;63814;50.118;8.714;2022-10-17T11:12:20;5.28;;;3.03;;
75230;SDS011;63814;50.118;8.714;2022-10-17T11:14:51;6.95;;;3.03;;
75230;SDS011;63814;50.118;8.714;2022-10-17T11:17:26;4.20;;;2.40;;
75230;SDS011;63814;50.118;8.714;2022-10-17T11:20:09;6.53;;;2.70;;
75230;SDS011;63814;50.118;8.714;2022-10-17T11:22:43;5.15;;;2.67;;
75230;SDS011;63814;50.118;8.714;2022-10-17T11:25:15;4.90;;;2.85;;
75230;SDS011;63814;50.118;8.714;2022-10-17T11:27:53;7.95;;;3.00;;
75230;SDS011;63814;50.118;8.714;2022-10-17T11:30:20;4.53;;;2.80;;
75230;SDS011;63814;50.118;8.714;2022-10-17T11:32:52;4.20;;;2.90;;
75230;SDS011;63814;50.118;8.714;2022-10-17T11:35:24;6.53;;;2.80;;
75230;SDS011;63814;50.118;8.714;2022-10-17T11:37:57;5.85;;;2.97;;
75230;SDS011;63814;50.118;8.714;2022-10-17T11:40:32;4.15;;;2.90;;
75230;SDS011;63814;50.118;8.714;2022-10-17T11:43:02;5.97;;;2.83;;
75230;SDS011;63814;50.118;8.714;2022-10-17T11:45:38;6.60;;;3.05;;
75230;SDS011;63814;50.118;8.714;2022-10-17T11:48:11;3.92;;;2.40;;
75230;SDS011;63814;50.118;8.714;2022-10-17T11:50:44;3.55;;;2.80;;
75230;SDS011;63814;50.118;8.714;2022-10-17T11:53:13;5.53;;;2.85;;
75230;SDS011;63814;50.118;8.714;2022-10-17T11:55:42;7.60;;;3.00;;
75230;SDS011;63814;50.118;8.714;2022-10-17T11:58:21;6.13;;;3.10;;
75230;SDS011;63814;50.118;8.714;2022-10-17T12:00:57;5.50;;;2.97;;
75230;SDS011;63814;50.118;8.714;2022-10-17T12:03:38;4.07;;;2.88;;
75230;SDS011;63814;50.118;8.714;2022-10-17T12:06:10;6.47;;;3.00;;
75230;SDS011;63814;50.118;8.714;2022-10-17T12:08:46;5.30;;;2.60;;
75230;SDS011;63814;50.118;8.714;2022-10-17T12:11:28;5.18;;;2.70;;
75230;SDS011;63814;50.118;8.714;2022-10-17T12:14:09;4.90;;;2.85;;
75230;SDS011;63814;50.118;8.714;2022-10-17T12:17:04;9.35;;;2.78;;
75230;SDS011;63814;50.118;8.714;2022-10-17T12:19:47;3.58;;;2.60;;
75230;SDS011;63814;50.118;8.714;2022-10-17T12:22:16;8.00;;;2.60;;
75230;SDS011;63814;50.118;8.714;2022-10-17T12:24:51;4.30;;;2.80;;
75230;SDS011;63814;50.118;8.714;2022-10-17T12:27:21;6.10;;;2.70;;
75230;SDS011;63814;50.118;8.714;2022-10-17T12:29:49;9.80;;;2.90;;
75230;SDS011;63814;50.118;8.714;2022-10-17T12:32:23;5.78;;;2.63;;
75230;SDS011;63814;50.118;8.714;2022-10-17T12:34:51;4.90;;;2.75;;
75230;SDS011;63814;50.118;8.714;2022-10-17T12:49:37;6.43;;;2.75;;
75230;SDS011;63814;50.118;8.714;2022-10-17T12:52:15;5.03;;;2.50;;
75230;SDS011;63814;50.118;8.714;2022-10-17T12:54:44;5.30;;;3.13;;
75230;SDS011;63814;50.118;8.714;2022-10-17T12:57:18;7.75;;;2.63;;
75230;SDS011;63814;50.118;8.714;2022-10-17T12:59:47;7.95;;;2.72;;
75230;SDS011;63814;50.118;8.714;2022-10-17T13:02:16;10.80;;;3.00;;
75230;SDS011;63814;50.118;8.714;2022-10-17T13:04:45;5.60;;;2.35;;
75230;SDS011;63814;50.118;8.714;2022-10-17T13:07:17;6.97;;;2.40;;
75230;SDS011;63814;50.118;8.714;2022-10-17T13:09:45;5.88;;;2.30;;
75230;SDS011;63814;50.118;8.714;2022-10-17T13:12:13;3.13;;;2.40;;
75230;SDS011;63814;50.118;8.714;2022-10-17T13:14:43;5.35;;;2.67;;
75230;SDS011;63814;50.118;8.714;2022-10-17T13:17:19;6.72;;;2.70;;
75230;SDS011;63814;50.118;8.714;2022-10-17T13:19:48;5.47;;;2.42;;
75230;SDS011;63814;50.118;8.714;2022-10-17T13:22:17;6.13;;;2.70;;
75230;SDS011;63814;50.118;8.714;2022-10-17T13:24:46;4.20;;;2.50;;
75230;SDS011;63814;50.118;8.714;2022-10-17T13:27:24;5.22;;;2.63;;
75230;SDS011;63814;50.118;8.714;2022-10-17T13:29:52;5.60;;;2.42;;
75230;SDS011;63814;50.118;8.714;2022-10-17T13:32:20;6.07;;;2.38;;
75230;SDS011;63814;50.118;8.714;2022-10-17T13:37:34;4.13;;;2.35;;
75230;SDS011;63814;50.118;8.714;2022-10-17T13:40:01;4.20;;;2.70;;
75230;SDS011;63814;50.118;8.714;2022-10-17T13:42:29;5.75;;;2.67;;
75230;SDS011;63814;50.118;8.714;2022-10-17T13:45:01;3.35;;;2.40;;
75230;SDS011;63814;50.118;8.714;2022-10-17T13:47:29;10.55;;;2.58;;
75230;SDS011;63814;50.118;8.714;2022-10-17T13:49:58;9.30;;;2.60;;
75230;SDS011;63814;50.118;8.714;2022-10-17T13:52:26;5.03;;;2.70;;
75230;SDS011;63814;50.118;8.714;2022-10-17T13:55:04;4.57;;;2.20;;
75230;SDS011;63814;50.118;8.714;2022-10-17T13:57:32;5.82;;;2.78;;
75230;SDS011;63814;50.118;8.714;2022-10-17T13:59:59;4.68;;;2.47;;
75230;SDS011;63814;50.118;8.714;2022-10-17T14:02:30;7.28;;;2.45;;
75230;SDS011;63814;50.118;8.714;2022-10-17T14:04:58;3.00;;;2.30;;
75230;SDS011;63814;50.118;8.714;2022-10-17T14:07:27;3.28;;;2.20;;
75230;SDS011;63814;50.118;8.714;2022-10-17T14:10:00;6.32;;;2.50;;
75230;SDS011;63814;50.118;8.714;2022-10-17T14:12:30;5.97;;;2.83;;
75230;SDS011;63814;50.118;8.714;2022-10-17T14:14:57;4.40;;;2.50;;
75230;SDS011;63814;50.118;8.714;2022-10-17T14:17:28;4.20;;;2.45;;
75230;SDS011;63814;50.118;8.714;2022-10-17T14:20:00;5.63;;;2.38;;
75230;SDS011;63814;50.118;8.714;2022-10-17T14:22:29;7.78;;;2.60;;
75230;SDS011;63814;50.118;8.714;2022-10-17T14:25:01;5.68;;;2.60;;
75230;SDS011;63814;50.118;8.714;2022-10-17T14:27:28;7.13;;;2.67;;
75230;SDS011;63814;50.118;8.714;2022-10-17T14:29:59;5.93;;;2.72;;
75230;SDS011;63814;50.118;8.714;2022-10-17T14:32:28;8.25;;;2.50;;
75230;SDS011;63814;50.118;8.714;2022-10-17T14:34:57;4.53;;;2.60;;
75230;SDS011;63814;50.118;8.714;2022-10-17T14:37:31;5.57;;;2.25;;
75230;SDS011;63814;50.118;8.714;2022-10-17T14:40:13;5.57;;;3.28;;
75230;SDS011;63814;50.118;8.714;2022-10-17T14:42:41;4.53;;;2.63;;
75230;SDS011;63814;50.118;8.714;2022-10-17T14:45:11;7.63;;;2.83;;
75230;SDS011;63814;50.118;8.714;2022-10-17T14:47:39;3.72;;;2.40;;
75230;SDS011;63814;50.118;8.714;2022-10-17T14:50:15;4.75;;;2.55;;
75230;SDS011;63814;50.118;8.714;2022-10-17T14:52:57;7.68;;;2.72;;
75230;SDS011;63814;50.118;8.714;2022-10-17T14:55:27;5.28;;;2.65;;
75230;SDS011;63814;50.118;8.714;2022-10-17T14:57:54;8.38;;;2.92;;
75230;SDS011;63814;50.118;8.714;2022-10-17T15:00:21;5.78;;;2.67;;
75230;SDS011;63814;50.118;8.714;2022-10-17T15:02:49;9.65;;;3.28;;
75230;SDS011;63814;50.118;8.714;2022-10-17T15:05:17;9.93;;;3.53;;
75230;SDS011;63814;50.118;8.714;2022-10-17T15:07:44;5.32;;;3.00;;
75230;SDS011;63814;50.118;8.714;2022-10-17T15:10:19;6.10;;;3.30;;
75230;SDS011;63814;50.118;8.714;2022-10-17T15:12:52;5.50;;;3.17;;
75230;SDS011;63814;50.118;8.714;2022-10-17T15:15:18;9.93;;;2.90;;
75230;SDS011;63814;50.118;8.714;2022-10-17T15:17:45;4.55;;;3.20;;
75230;SDS011;63814;50.118;8.714;2022-10-17T15:20:11;6.32;;;3.05;;